sensor_id;sensor_type;location;lat;lon;timestamp;temperature;humidity
41058;DHT22;27499;48.884;2.258;2022-10-15T00:01:18;16.30;99.90
41058;DHT22;27499;48.884;2.258;2022-10-15T00:03:46;16.20;99.90
41058;DHT22;27499;48.884;2.258;2022-10-15T00:06:16;16.20;99.90
41058;DHT22;27499;48.884;2.258;2022-10-15T00:08:43;16.30;99.90
41058;DHT22;27499;48.884;2.258;2022-10-15T00:11:16;16.30;99.90
41058;DHT22;27499;48.884;2.258;2022-10-15T00:13:44;16.30;99.90
41058;DHT22;27499;48.884;2.258;2022-10-15T00:16:16;16.30;99.90
41058;DHT22;27499;48.884;2.258;2022-10-15T00:18:43;16.30;99.90
41058;DHT22;27499;48.884;2.258;2022-10-15T00:21:12;16.30;99.90
41058;DHT22;27499;48.884;2.258;2022-10-15T00:23:41;16.30;99.90
41058;DHT22;27499;48.884;2.258;2022-10-15T00:26:10;16.30;99.90
41058;DHT22;27499;48.884;2.258;2022-10-15T00:28:37;16.20;99.90
41058;DHT22;27499;48.884;2.258;2022-10-15T00:31:13;16.20;99.90
41058;DHT22;27499;48.884;2.258;2022-10-15T00:33:41;16.30;99.90
41058;DHT22;27499;48.884;2.258;2022-10-15T00:36:13;16.30;99.90
41058;DHT22;27499;48.884;2.258;2022-10-15T00:38:40;16.30;99.90
41058;DHT22;27499;48.884;2.258;2022-10-15T00:41:13;16.30;99.90
41058;DHT22;27499;48.884;2.258;2022-10-15T00:43:41;16.30;99.90
41058;DHT22;27499;48.884;2.258;2022-10-15T00:48:52;16.20;99.90
41058;DHT22;27499;48.884;2.258;2022-10-15T00:51:21;16.20;99.90
41058;DHT22;27499;48.884;2.258;2022-10-15T00:53:50;16.20;99.90
41058;DHT22;27499;48.884;2.258;2022-10-15T00:56:19;16.30;99.90
41058;DHT22;27499;48.884;2.258;2022-10-15T00:58:48;16.20;99.90
41058;DHT22;27499;48.884;2.258;2022-10-15T01:01:15;16.20;99.90
41058;DHT22;27499;48.884;2.258;2022-10-15T01:03:42;16.20;99.90
41058;DHT22;27499;48.884;2.258;2022-10-15T01:06:09;16.30;99.90
41058;DHT22;27499;48.884;2.258;2022-10-15T01:08:36;16.30;99.90
41058;DHT22;27499;48.884;2.258;2022-10-15T01:14:10;16.30;99.90
41058;DHT22;27499;48.884;2.258;2022-10-15T01:17:06;16.30;99.90
41058;DHT22;27499;48.884;2.258;2022-10-15T01:28:21;16.30;99.90
41058;DHT22;27499;48.884;2.258;2022-10-15T01:30:58;16.30;99.90
41058;DHT22;27499;48.884;2.258;2022-10-15T01:33:45;16.30;99.90
41058;DHT22;27499;48.884;2.258;2022-10-15T01:36:19;16.30;99.90
41058;DHT22;27499;48.884;2.258;2022-10-15T01:39:13;16.30;99.90
41058;DHT22;27499;48.884;2.258;2022-10-15T01:41:44;16.30;99.90
41058;DHT22;27499;48.884;2.258;2022-10-15T01:47:00;16.30;99.90
41058;DHT22;27499;48.884;2.258;2022-10-15T01:49:32;16.30;99.90
41058;DHT22;27499;48.884;2.258;2022-10-15T01:52:07;16.30;99.90
41058;DHT22;27499;48.884;2.258;2022-10-15T01:54:36;16.30;99.90
41058;DHT22;27499;48.884;2.258;2022-10-15T01:57:04;16.30;99.90
41058;DHT22;27499;48.884;2.258;2022-10-15T01:59:33;16.30;99.90
41058;DHT22;27499;48.884;2.258;2022-10-15T02:02:00;16.30;99.90
41058;DHT22;27499;48.884;2.258;2022-10-15T02:04:29;16.30;99.90
41058;DHT22;27499;48.884;2.258;2022-10-15T02:14:36;16.30;99.90
41058;DHT22;27499;48.884;2.258;2022-10-15T02:17:10;16.40;99.90
41058;DHT22;27499;48.884;2.258;2022-10-15T02:20:14;16.30;99.90
41058;DHT22;27499;48.884;2.258;2022-10-15T02:22:49;16.30;99.90
41058;DHT22;27499;48.884;2.258;2022-10-15T02:25:21;16.40;99.90
41058;DHT22;27499;48.884;2.258;2022-10-15T02:27:51;16.40;99.90
41058;DHT22;27499;48.884;2.258;2022-10-15T02:30:20;16.30;99.90
41058;DHT22;27499;48.884;2.258;2022-10-15T02:32:51;16.30;99.90
41058;DHT22;27499;48.884;2.258;2022-10-15T02:35:19;16.40;99.90
41058;DHT22;27499;48.884;2.258;2022-10-15T02:37:49;16.30;99.90
41058;DHT22;27499;48.884;2.258;2022-10-15T02:40:22;16.40;99.90
41058;DHT22;27499;48.884;2.258;2022-10-15T02:42:51;16.40;99.90
41058;DHT22;27499;48.884;2.258;2022-10-15T02:45:18;16.40;99.90
41058;DHT22;27499;48.884;2.258;2022-10-15T02:47:45;16.40;99.90
41058;DHT22;27499;48.884;2.258;2022-10-15T02:50:12;16.40;99.90
41058;DHT22;27499;48.884;2.258;2022-10-15T02:52:38;16.40;99.90
41058;DHT22;27499;48.884;2.258;2022-10-15T02:55:06;16.40;99.90
41058;DHT22;27499;48.884;2.258;2022-10-15T02:57:32;16.40;99.90
41058;DHT22;27499;48.884;2.258;2022-10-15T02:59:59;16.40;99.90
41058;DHT22;27499;48.884;2.258;2022-10-15T03:02:26;16.40;99.90
41058;DHT22;27499;48.884;2.258;2022-10-15T03:04:53;16.40;99.90
41058;DHT22;27499;48.884;2.258;2022-10-15T03:07:20;16.40;99.90
41058;DHT22;27499;48.884;2.258;2022-10-15T03:09:47;16.40;99.90
41058;DHT22;27499;48.884;2.258;2022-10-15T03:12:14;16.40;99.90
41058;DHT22;27499;48.884;2.258;2022-10-15T03:14:41;16.40;99.90
41058;DHT22;27499;48.884;2.258;2022-10-15T03:17:08;16.40;99.90
41058;DHT22;27499;48.884;2.258;2022-10-15T03:19:35;16.50;99.90
41058;DHT22;27499;48.884;2.258;2022-10-15T03:22:01;16.50;99.90
41058;DHT22;27499;48.884;2.258;2022-10-15T03:24:28;16.50;99.90
41058;DHT22;27499;48.884;2.258;2022-10-15T03:26:56;16.50;99.90
41058;DHT22;27499;48.884;2.258;2022-10-15T03:29:22;16.50;99.90
41058;DHT22;27499;48.884;2.258;2022-10-15T03:31:49;16.50;99.90
41058;DHT22;27499;48.884;2.258;2022-10-15T03:34:16;16.50;99.90
41058;DHT22;27499;48.884;2.258;2022-10-15T03:36:43;16.50;99.90
41058;DHT22;27499;48.884;2.258;2022-10-15T03:39:11;16.50;99.90
41058;DHT22;27499;48.884;2.258;2022-10-15T03:41:38;16.50;99.90
41058;DHT22;27499;48.884;2.258;2022-10-15T03:44:06;16.60;99.90
41058;DHT22;27499;48.884;2.258;2022-10-15T03:46:33;16.60;99.90
41058;DHT22;27499;48.884;2.258;2022-10-15T03:49:00;16.60;99.90
41058;DHT22;27499;48.884;2.258;2022-10-15T03:51:27;16.60;99.90
41058;DHT22;27499;48.884;2.258;2022-10-15T03:53:57;16.60;99.90
41058;DHT22;27499;48.884;2.258;2022-10-15T03:56:24;16.60;99.90
41058;DHT22;27499;48.884;2.258;2022-10-15T03:58:51;16.70;99.90
41058;DHT22;27499;48.884;2.258;2022-10-15T04:01:18;16.70;99.90
41058;DHT22;27499;48.884;2.258;2022-10-15T04:03:45;16.70;99.90
41058;DHT22;27499;48.884;2.258;2022-10-15T04:06:12;16.70;99.90
41058;DHT22;27499;48.884;2.258;2022-10-15T04:08:39;16.70;99.90
41058;DHT22;27499;48.884;2.258;2022-10-15T04:11:06;16.70;99.90
41058;DHT22;27499;48.884;2.258;2022-10-15T04:13:32;16.80;99.90
41058;DHT22;27499;48.884;2.258;2022-10-15T04:15:59;16.80;99.90
41058;DHT22;27499;48.884;2.258;2022-10-15T04:18:26;16.80;99.90
41058;DHT22;27499;48.884;2.258;2022-10-15T04:20:53;16.80;99.90
41058;DHT22;27499;48.884;2.258;2022-10-15T04:23:20;16.80;99.90
41058;DHT22;27499;48.884;2.258;2022-10-15T04:25:46;16.80;99.90
41058;DHT22;27499;48.884;2.258;2022-10-15T04:28:13;16.80;99.90
41058;DHT22;27499;48.884;2.258;2022-10-15T04:30:40;16.80;99.90
41058;DHT22;27499;48.884;2.258;2022-10-15T04:33:07;16.80;99.90
41058;DHT22;27499;48.884;2.258;2022-10-15T04:35:35;16.80;99.90
41058;DHT22;27499;48.884;2.258;2022-10-15T04:38:02;16.90;99.90
41058;DHT22;27499;48.884;2.258;2022-10-15T04:40:29;16.90;99.90
41058;DHT22;27499;48.884;2.258;2022-10-15T04:42:56;16.90;99.90
41058;DHT22;27499;48.884;2.258;2022-10-15T04:45:23;16.90;99.90
41058;DHT22;27499;48.884;2.258;2022-10-15T04:48:09;16.90;99.90
41058;DHT22;27499;48.884;2.258;2022-10-15T04:50:36;16.90;99.90
41058;DHT22;27499;48.884;2.258;2022-10-15T04:53:03;16.90;99.90
41058;DHT22;27499;48.884;2.258;2022-10-15T04:55:30;16.90;99.90
41058;DHT22;27499;48.884;2.258;2022-10-15T04:57:57;16.90;99.90
41058;DHT22;27499;48.884;2.258;2022-10-15T05:00:23;16.90;99.90
41058;DHT22;27499;48.884;2.258;2022-10-15T05:02:50;16.90;99.90
41058;DHT22;27499;48.884;2.258;2022-10-15T05:05:17;16.90;99.90
41058;DHT22;27499;48.884;2.258;2022-10-15T05:07:44;16.90;99.90
41058;DHT22;27499;48.884;2.258;2022-10-15T05:10:11;16.90;99.90
41058;DHT22;27499;48.884;2.258;2022-10-15T05:12:38;16.90;99.90
41058;DHT22;27499;48.884;2.258;2022-10-15T05:15:05;16.90;99.90
41058;DHT22;27499;48.884;2.258;2022-10-15T05:17:32;16.90;99.90
41058;DHT22;27499;48.884;2.258;2022-10-15T05:19:59;16.90;99.90
41058;DHT22;27499;48.884;2.258;2022-10-15T05:22:25;16.90;99.90
41058;DHT22;27499;48.884;2.258;2022-10-15T05:24:52;16.90;99.90
41058;DHT22;27499;48.884;2.258;2022-10-15T05:27:19;17.00;99.90
41058;DHT22;27499;48.884;2.258;2022-10-15T05:29:46;16.90;99.90
41058;DHT22;27499;48.884;2.258;2022-10-15T05:32:13;16.90;99.90
41058;DHT22;27499;48.884;2.258;2022-10-15T05:34:40;17.00;99.90
41058;DHT22;27499;48.884;2.258;2022-10-15T05:37:07;17.00;99.90
41058;DHT22;27499;48.884;2.258;2022-10-15T05:39:33;17.00;99.90
41058;DHT22;27499;48.884;2.258;2022-10-15T05:42:00;17.00;99.90
41058;DHT22;27499;48.884;2.258;2022-10-15T05:44:27;17.00;99.90
41058;DHT22;27499;48.884;2.258;2022-10-15T05:46:54;17.00;99.90
41058;DHT22;27499;48.884;2.258;2022-10-15T05:49:21;17.00;99.90
41058;DHT22;27499;48.884;2.258;2022-10-15T05:51:48;17.00;99.90
41058;DHT22;27499;48.884;2.258;2022-10-15T05:54:15;17.00;99.90
41058;DHT22;27499;48.884;2.258;2022-10-15T05:56:41;17.00;99.90
41058;DHT22;27499;48.884;2.258;2022-10-15T05:59:09;17.00;99.90
41058;DHT22;27499;48.884;2.258;2022-10-15T06:01:36;17.00;99.90
41058;DHT22;27499;48.884;2.258;2022-10-15T06:04:03;17.00;99.90
41058;DHT22;27499;48.884;2.258;2022-10-15T06:06:30;17.00;99.90
41058;DHT22;27499;48.884;2.258;2022-10-15T06:08:57;17.00;99.90
41058;DHT22;27499;48.884;2.258;2022-10-15T06:11:24;17.00;99.90
41058;DHT22;27499;48.884;2.258;2022-10-15T06:13:51;17.00;99.90
41058;DHT22;27499;48.884;2.258;2022-10-15T06:16:18;17.00;99.90
41058;DHT22;27499;48.884;2.258;2022-10-15T06:18:51;17.00;99.90
41058;DHT22;27499;48.884;2.258;2022-10-15T06:21:19;17.10;99.90
41058;DHT22;27499;48.884;2.258;2022-10-15T06:23:45;17.10;99.90
41058;DHT22;27499;48.884;2.258;2022-10-15T06:26:12;17.10;99.90
41058;DHT22;27499;48.884;2.258;2022-10-15T06:28:39;17.10;99.90
41058;DHT22;27499;48.884;2.258;2022-10-15T06:31:07;17.10;99.90
41058;DHT22;27499;48.884;2.258;2022-10-15T06:33:34;17.10;99.90
41058;DHT22;27499;48.884;2.258;2022-10-15T06:36:03;17.10;99.90
41058;DHT22;27499;48.884;2.258;2022-10-15T06:38:31;17.10;99.90
41058;DHT22;27499;48.884;2.258;2022-10-15T06:40:58;17.10;99.90
41058;DHT22;27499;48.884;2.258;2022-10-15T06:43:25;17.10;99.90
41058;DHT22;27499;48.884;2.258;2022-10-15T06:45:58;17.10;99.90
41058;DHT22;27499;48.884;2.258;2022-10-15T06:48:25;17.10;99.90
41058;DHT22;27499;48.884;2.258;2022-10-15T06:50:52;17.10;99.90
41058;DHT22;27499;48.884;2.258;2022-10-15T06:53:19;17.20;99.90
41058;DHT22;27499;48.884;2.258;2022-10-15T06:55:46;17.10;99.90
41058;DHT22;27499;48.884;2.258;2022-10-15T06:58:12;17.20;99.90
41058;DHT22;27499;48.884;2.258;2022-10-15T07:00:39;17.10;99.90
41058;DHT22;27499;48.884;2.258;2022-10-15T07:03:06;17.20;99.90
41058;DHT22;27499;48.884;2.258;2022-10-15T07:05:33;17.20;99.90
41058;DHT22;27499;48.884;2.258;2022-10-15T07:08:00;17.20;99.90
41058;DHT22;27499;48.884;2.258;2022-10-15T07:10:27;17.20;99.90
41058;DHT22;27499;48.884;2.258;2022-10-15T07:12:54;17.20;99.90
41058;DHT22;27499;48.884;2.258;2022-10-15T07:15:21;17.30;99.90
41058;DHT22;27499;48.884;2.258;2022-10-15T07:17:50;17.20;99.90
41058;DHT22;27499;48.884;2.258;2022-10-15T07:20:18;17.20;99.90
41058;DHT22;27499;48.884;2.258;2022-10-15T07:22:49;17.30;99.90
41058;DHT22;27499;48.884;2.258;2022-10-15T07:25:16;17.30;99.90
41058;DHT22;27499;48.884;2.258;2022-10-15T07:27:43;17.30;99.90
41058;DHT22;27499;48.884;2.258;2022-10-15T07:30:10;17.30;99.90
41058;DHT22;27499;48.884;2.258;2022-10-15T07:32:37;17.30;99.90
41058;DHT22;27499;48.884;2.258;2022-10-15T07:35:04;17.30;99.90
41058;DHT22;27499;48.884;2.258;2022-10-15T07:37:31;17.30;99.90
41058;DHT22;27499;48.884;2.258;2022-10-15T07:39:58;17.30;99.90
41058;DHT22;27499;48.884;2.258;2022-10-15T07:42:25;17.30;99.90
41058;DHT22;27499;48.884;2.258;2022-10-15T07:44:52;17.40;99.90
41058;DHT22;27499;48.884;2.258;2022-10-15T07:47:19;17.40;99.90
41058;DHT22;27499;48.884;2.258;2022-10-15T07:49:47;17.30;99.90
41058;DHT22;27499;48.884;2.258;2022-10-15T07:52:14;17.40;99.90
41058;DHT22;27499;48.884;2.258;2022-10-15T07:54:41;17.40;99.90
41058;DHT22;27499;48.884;2.258;2022-10-15T07:57:08;17.40;99.90
41058;DHT22;27499;48.884;2.258;2022-10-15T07:59:35;17.40;99.90
41058;DHT22;27499;48.884;2.258;2022-10-15T08:02:02;17.40;99.90
41058;DHT22;27499;48.884;2.258;2022-10-15T08:04:29;17.40;99.90
41058;DHT22;27499;48.884;2.258;2022-10-15T08:06:56;17.40;99.90
41058;DHT22;27499;48.884;2.258;2022-10-15T08:09:23;17.50;99.90
41058;DHT22;27499;48.884;2.258;2022-10-15T08:11:50;17.50;99.90
41058;DHT22;27499;48.884;2.258;2022-10-15T08:14:17;17.50;99.90
41058;DHT22;27499;48.884;2.258;2022-10-15T08:16:44;17.50;99.90
41058;DHT22;27499;48.884;2.258;2022-10-15T08:19:11;17.50;99.90
41058;DHT22;27499;48.884;2.258;2022-10-15T08:21:38;17.50;99.90
41058;DHT22;27499;48.884;2.258;2022-10-15T08:24:08;17.50;99.90
41058;DHT22;27499;48.884;2.258;2022-10-15T08:26:35;17.50;99.90
41058;DHT22;27499;48.884;2.258;2022-10-15T08:29:02;17.50;99.90
41058;DHT22;27499;48.884;2.258;2022-10-15T08:31:29;17.50;99.90
41058;DHT22;27499;48.884;2.258;2022-10-15T08:34:01;17.50;99.90
41058;DHT22;27499;48.884;2.258;2022-10-15T08:36:28;17.60;99.90
41058;DHT22;27499;48.884;2.258;2022-10-15T08:38:55;17.60;99.90
41058;DHT22;27499;48.884;2.258;2022-10-15T08:41:53;17.60;99.90
41058;DHT22;27499;48.884;2.258;2022-10-15T08:44:31;17.60;99.90
41058;DHT22;27499;48.884;2.258;2022-10-15T08:49:58;17.70;99.90
41058;DHT22;27499;48.884;2.258;2022-10-15T08:52:37;17.70;99.90
41058;DHT22;27499;48.884;2.258;2022-10-15T08:55:12;17.70;99.90
41058;DHT22;27499;48.884;2.258;2022-10-15T09:00:22;17.70;99.90
41058;DHT22;27499;48.884;2.258;2022-10-15T09:05:47;17.80;99.90
41058;DHT22;27499;48.884;2.258;2022-10-15T09:08:25;17.80;99.90
41058;DHT22;27499;48.884;2.258;2022-10-15T09:10:59;17.80;99.90
41058;DHT22;27499;48.884;2.258;2022-10-15T09:13:38;17.80;99.90
41058;DHT22;27499;48.884;2.258;2022-10-15T09:16:17;17.80;99.90
41058;DHT22;27499;48.884;2.258;2022-10-15T09:18:48;17.80;99.90
41058;DHT22;27499;48.884;2.258;2022-10-15T09:21:15;17.80;99.90
41058;DHT22;27499;48.884;2.258;2022-10-15T09:23:43;17.80;99.90
41058;DHT22;27499;48.884;2.258;2022-10-15T09:29:46;17.90;99.90
41058;DHT22;27499;48.884;2.258;2022-10-15T09:34:36;17.90;99.90
41058;DHT22;27499;48.884;2.258;2022-10-15T09:37:13;18.00;99.90
41058;DHT22;27499;48.884;2.258;2022-10-15T09:42:48;18.00;99.90
41058;DHT22;27499;48.884;2.258;2022-10-15T09:45:16;18.00;99.90
41058;DHT22;27499;48.884;2.258;2022-10-15T09:47:44;18.00;99.90
41058;DHT22;27499;48.884;2.258;2022-10-15T09:50:12;18.10;99.90
41058;DHT22;27499;48.884;2.258;2022-10-15T09:58:16;18.10;99.90
41058;DHT22;27499;48.884;2.258;2022-10-15T10:00:51;18.10;99.90
41058;DHT22;27499;48.884;2.258;2022-10-15T10:03:18;18.10;99.90
41058;DHT22;27499;48.884;2.258;2022-10-15T10:05:45;18.10;99.90
41058;DHT22;27499;48.884;2.258;2022-10-15T10:10:41;18.10;99.90
41058;DHT22;27499;48.884;2.258;2022-10-15T10:15:52;18.00;99.90
41058;DHT22;27499;48.884;2.258;2022-10-15T10:18:25;18.00;99.90
41058;DHT22;27499;48.884;2.258;2022-10-15T10:20:58;18.00;99.90
41058;DHT22;27499;48.884;2.258;2022-10-15T10:25:57;18.10;99.90
41058;DHT22;27499;48.884;2.258;2022-10-15T10:28:31;18.10;99.90
41058;DHT22;27499;48.884;2.258;2022-10-15T10:31:02;18.10;99.90
41058;DHT22;27499;48.884;2.258;2022-10-15T10:33:34;18.10;99.90
41058;DHT22;27499;48.884;2.258;2022-10-15T10:36:02;18.10;99.90
41058;DHT22;27499;48.884;2.258;2022-10-15T10:38:35;18.20;99.90
41058;DHT22;27499;48.884;2.258;2022-10-15T10:41:10;18.10;99.90
41058;DHT22;27499;48.884;2.258;2022-10-15T10:43:39;18.10;99.90
41058;DHT22;27499;48.884;2.258;2022-10-15T10:48:42;18.10;99.90
41058;DHT22;27499;48.884;2.258;2022-10-15T10:56:36;18.00;99.90
41058;DHT22;27499;48.884;2.258;2022-10-15T11:02:10;17.90;99.90
41058;DHT22;27499;48.884;2.258;2022-10-15T11:04:38;17.90;99.90
41058;DHT22;27499;48.884;2.258;2022-10-15T11:08:04;17.90;99.90
41058;DHT22;27499;48.884;2.258;2022-10-15T11:10:41;18.00;99.90
41058;DHT22;27499;48.884;2.258;2022-10-15T11:15:51;18.00;99.90
41058;DHT22;27499;48.884;2.258;2022-10-15T11:24:17;18.10;99.90
41058;DHT22;27499;48.884;2.258;2022-10-15T11:27:08;18.10;99.90
41058;DHT22;27499;48.884;2.258;2022-10-15T11:37:57;18.20;99.90
41058;DHT22;27499;48.884;2.258;2022-10-15T11:43:43;18.20;99.90
41058;DHT22;27499;48.884;2.258;2022-10-15T11:57:04;18.10;99.90
41058;DHT22;27499;48.884;2.258;2022-10-15T11:59:55;18.10;99.90
41058;DHT22;27499;48.884;2.258;2022-10-15T12:02:33;18.10;99.90
41058;DHT22;27499;48.884;2.258;2022-10-15T12:05:34;18.20;99.90
41058;DHT22;27499;48.884;2.258;2022-10-15T12:08:05;18.20;99.90
41058;DHT22;27499;48.884;2.258;2022-10-15T12:16:52;18.10;99.90
41058;DHT22;27499;48.884;2.258;2022-10-15T12:19:39;18.10;99.90
41058;DHT22;27499;48.884;2.258;2022-10-15T12:22:09;18.10;99.90
41058;DHT22;27499;48.884;2.258;2022-10-15T12:29:48;18.10;99.90
41058;DHT22;27499;48.884;2.258;2022-10-15T12:32:27;18.20;99.90
41058;DHT22;27499;48.884;2.258;2022-10-15T12:34:59;18.10;99.90
41058;DHT22;27499;48.884;2.258;2022-10-15T12:37:30;18.20;99.90
41058;DHT22;27499;48.884;2.258;2022-10-15T12:40:02;18.20;99.90
41058;DHT22;27499;48.884;2.258;2022-10-15T12:42:35;18.20;99.90
41058;DHT22;27499;48.884;2.258;2022-10-15T12:45:19;18.20;99.90
41058;DHT22;27499;48.884;2.258;2022-10-15T12:50:33;18.20;99.90
41058;DHT22;27499;48.884;2.258;2022-10-15T12:53:04;18.20;99.90
41058;DHT22;27499;48.884;2.258;2022-10-15T12:55:37;18.20;99.90
41058;DHT22;27499;48.884;2.258;2022-10-15T12:58:36;18.30;99.90
41058;DHT22;27499;48.884;2.258;2022-10-15T13:03:58;18.30;99.90
41058;DHT22;27499;48.884;2.258;2022-10-15T13:06:33;18.20;99.90
41058;DHT22;27499;48.884;2.258;2022-10-15T13:09:22;18.20;99.90
41058;DHT22;27499;48.884;2.258;2022-10-15T13:11:53;18.20;99.90
41058;DHT22;27499;48.884;2.258;2022-10-15T13:14:26;18.20;99.90
41058;DHT22;27499;48.884;2.258;2022-10-15T13:16:54;18.20;99.90
41058;DHT22;27499;48.884;2.258;2022-10-15T13:19:27;18.20;99.90
41058;DHT22;27499;48.884;2.258;2022-10-15T13:21:59;18.20;99.90
41058;DHT22;27499;48.884;2.258;2022-10-15T13:24:29;18.20;99.90
41058;DHT22;27499;48.884;2.258;2022-10-15T13:26:59;18.20;99.90
41058;DHT22;27499;48.884;2.258;2022-10-15T13:29:27;18.20;99.90
41058;DHT22;27499;48.884;2.258;2022-10-15T13:31:55;18.20;99.90
41058;DHT22;27499;48.884;2.258;2022-10-15T13:34:31;18.20;99.90
41058;DHT22;27499;48.884;2.258;2022-10-15T13:37:02;18.20;99.90
41058;DHT22;27499;48.884;2.258;2022-10-15T13:39:38;18.20;99.90
41058;DHT22;27499;48.884;2.258;2022-10-15T13:42:14;18.20;99.90
41058;DHT22;27499;48.884;2.258;2022-10-15T13:44:43;18.20;99.90
41058;DHT22;27499;48.884;2.258;2022-10-15T13:47:33;18.20;99.90
41058;DHT22;27499;48.884;2.258;2022-10-15T13:50:16;18.20;99.90
41058;DHT22;27499;48.884;2.258;2022-10-15T13:53:30;18.20;99.90
41058;DHT22;27499;48.884;2.258;2022-10-15T13:55:37;18.20;99.90
41058;DHT22;27499;48.884;2.258;2022-10-15T14:00:41;18.10;99.90
41058;DHT22;27499;48.884;2.258;2022-10-15T14:03:28;18.20;99.90
41058;DHT22;27499;48.884;2.258;2022-10-15T14:08:40;18.10;99.90
41058;DHT22;27499;48.884;2.258;2022-10-15T14:11:11;18.00;99.90
41058;DHT22;27499;48.884;2.258;2022-10-15T14:16:31;18.00;99.90
41058;DHT22;27499;48.884;2.258;2022-10-15T14:21:33;17.90;99.90
41058;DHT22;27499;48.884;2.258;2022-10-15T14:26:37;17.90;99.90
41058;DHT22;27499;48.884;2.258;2022-10-15T14:29:05;17.90;99.90
41058;DHT22;27499;48.884;2.258;2022-10-15T14:31:38;17.80;99.90
41058;DHT22;27499;48.884;2.258;2022-10-15T14:36:55;17.80;99.90
41058;DHT22;27499;48.884;2.258;2022-10-15T14:39:31;17.70;99.90
41058;DHT22;27499;48.884;2.258;2022-10-15T14:42:03;17.70;99.90
41058;DHT22;27499;48.884;2.258;2022-10-15T14:47:19;17.70;99.90
41058;DHT22;27499;48.884;2.258;2022-10-15T14:49:50;17.60;99.90
41058;DHT22;27499;48.884;2.258;2022-10-15T14:52:19;17.60;99.90
41058;DHT22;27499;48.884;2.258;2022-10-15T14:55:03;17.60;99.90
41058;DHT22;27499;48.884;2.258;2022-10-15T14:57:38;17.60;99.90
41058;DHT22;27499;48.884;2.258;2022-10-15T15:00:14;17.60;99.90
41058;DHT22;27499;48.884;2.258;2022-10-15T15:02:42;17.50;99.90
41058;DHT22;27499;48.884;2.258;2022-10-15T15:07:40;17.50;99.90
41058;DHT22;27499;48.884;2.258;2022-10-15T15:10:07;17.50;99.90
41058;DHT22;27499;48.884;2.258;2022-10-15T15:12:37;17.50;99.90
41058;DHT22;27499;48.884;2.258;2022-10-15T15:15:12;17.40;99.90
41058;DHT22;27499;48.884;2.258;2022-10-15T15:17:39;17.40;99.90
41058;DHT22;27499;48.884;2.258;2022-10-15T15:20:06;17.50;99.90
41058;DHT22;27499;48.884;2.258;2022-10-15T15:22:34;17.50;99.90
41058;DHT22;27499;48.884;2.258;2022-10-15T15:25:09;17.50;99.90
41058;DHT22;27499;48.884;2.258;2022-10-15T15:27:38;17.50;99.90
41058;DHT22;27499;48.884;2.258;2022-10-15T15:30:07;17.50;99.90
41058;DHT22;27499;48.884;2.258;2022-10-15T15:32:38;17.40;99.90
41058;DHT22;27499;48.884;2.258;2022-10-15T15:35:38;17.50;99.90
41058;DHT22;27499;48.884;2.258;2022-10-15T15:38:00;17.50;99.90
41058;DHT22;27499;48.884;2.258;2022-10-15T15:40:27;17.40;99.90
41058;DHT22;27499;48.884;2.258;2022-10-15T15:42:54;17.40;99.90
41058;DHT22;27499;48.884;2.258;2022-10-15T15:45:24;17.40;99.90
41058;DHT22;27499;48.884;2.258;2022-10-15T15:47:52;17.40;99.90
41058;DHT22;27499;48.884;2.258;2022-10-15T15:50:20;17.40;99.90
41058;DHT22;27499;48.884;2.258;2022-10-15T15:52:47;17.40;99.90
41058;DHT22;27499;48.884;2.258;2022-10-15T15:55:14;17.30;99.90
41058;DHT22;27499;48.884;2.258;2022-10-15T15:57:41;17.30;99.90
41058;DHT22;27499;48.884;2.258;2022-10-15T16:00:09;17.20;99.90
41058;DHT22;27499;48.884;2.258;2022-10-15T16:02:36;17.30;99.90
41058;DHT22;27499;48.884;2.258;2022-10-15T16:05:05;17.30;99.90
41058;DHT22;27499;48.884;2.258;2022-10-15T16:07:32;17.30;99.90
41058;DHT22;27499;48.884;2.258;2022-10-15T16:10:00;17.30;99.90
41058;DHT22;27499;48.884;2.258;2022-10-15T16:12:27;17.30;99.90
41058;DHT22;27499;48.884;2.258;2022-10-15T16:14:54;17.30;99.90
41058;DHT22;27499;48.884;2.258;2022-10-15T16:17:21;17.30;99.90
41058;DHT22;27499;48.884;2.258;2022-10-15T16:19:50;17.40;99.90
41058;DHT22;27499;48.884;2.258;2022-10-15T16:22:17;17.30;99.90
41058;DHT22;27499;48.884;2.258;2022-10-15T16:24:43;17.30;99.90
41058;DHT22;27499;48.884;2.258;2022-10-15T16:27:10;17.40;99.90
41058;DHT22;27499;48.884;2.258;2022-10-15T16:29:37;17.40;99.90
41058;DHT22;27499;48.884;2.258;2022-10-15T16:32:04;17.40;99.90
41058;DHT22;27499;48.884;2.258;2022-10-15T16:34:31;17.30;99.90
41058;DHT22;27499;48.884;2.258;2022-10-15T16:36:58;17.30;99.90
41058;DHT22;27499;48.884;2.258;2022-10-15T16:39:28;17.30;99.90
41058;DHT22;27499;48.884;2.258;2022-10-15T16:41:55;17.30;99.90
41058;DHT22;27499;48.884;2.258;2022-10-15T16:44:22;17.30;99.90
41058;DHT22;27499;48.884;2.258;2022-10-15T16:46:48;17.40;99.90
41058;DHT22;27499;48.884;2.258;2022-10-15T16:49:15;17.40;99.90
41058;DHT22;27499;48.884;2.258;2022-10-15T16:51:42;17.30;99.90
41058;DHT22;27499;48.884;2.258;2022-10-15T16:54:12;17.30;99.90
41058;DHT22;27499;48.884;2.258;2022-10-15T16:56:41;17.30;99.90
41058;DHT22;27499;48.884;2.258;2022-10-15T16:59:08;17.30;99.90
41058;DHT22;27499;48.884;2.258;2022-10-15T17:01:35;17.30;99.90
41058;DHT22;27499;48.884;2.258;2022-10-15T17:04:03;17.30;99.90
41058;DHT22;27499;48.884;2.258;2022-10-15T17:06:30;17.20;99.90
41058;DHT22;27499;48.884;2.258;2022-10-15T17:09:00;17.20;99.90
41058;DHT22;27499;48.884;2.258;2022-10-15T17:11:38;17.10;99.90
41058;DHT22;27499;48.884;2.258;2022-10-15T17:14:11;17.10;99.90
41058;DHT22;27499;48.884;2.258;2022-10-15T17:16:49;17.00;99.90
41058;DHT22;27499;48.884;2.258;2022-10-15T17:19:19;17.00;99.90
41058;DHT22;27499;48.884;2.258;2022-10-15T17:21:46;17.00;99.90
41058;DHT22;27499;48.884;2.258;2022-10-15T17:24:15;16.90;99.90
41058;DHT22;27499;48.884;2.258;2022-10-15T17:26:43;16.90;99.90
41058;DHT22;27499;48.884;2.258;2022-10-15T17:29:19;16.90;99.90
41058;DHT22;27499;48.884;2.258;2022-10-15T17:31:46;16.90;99.90
41058;DHT22;27499;48.884;2.258;2022-10-15T17:34:14;16.90;99.90
41058;DHT22;27499;48.884;2.258;2022-10-15T17:36:44;16.90;99.90
41058;DHT22;27499;48.884;2.258;2022-10-15T17:39:17;17.00;99.90
41058;DHT22;27499;48.884;2.258;2022-10-15T17:41:44;17.00;99.90
41058;DHT22;27499;48.884;2.258;2022-10-15T17:44:11;17.00;99.90
41058;DHT22;27499;48.884;2.258;2022-10-15T17:46:39;17.00;99.90
41058;DHT22;27499;48.884;2.258;2022-10-15T17:49:06;17.00;99.90
41058;DHT22;27499;48.884;2.258;2022-10-15T17:51:35;17.00;99.90
41058;DHT22;27499;48.884;2.258;2022-10-15T17:54:03;17.00;99.90
41058;DHT22;27499;48.884;2.258;2022-10-15T17:56:32;17.10;99.90
41058;DHT22;27499;48.884;2.258;2022-10-15T17:59:00;17.10;99.90
41058;DHT22;27499;48.884;2.258;2022-10-15T18:01:35;17.10;99.90
41058;DHT22;27499;48.884;2.258;2022-10-15T18:04:22;17.10;99.90